sensor_id;sensor_type;location;lat;lon;timestamp;P1;durP1;ratioP1;P2;durP2;ratioP2
691;SDS011;328;50.086;8.576;2023-03-13T00:01:34;12.63;;;2.90;;
691;SDS011;328;50.086;8.576;2023-03-13T00:04:03;9.70;;;2.70;;
691;SDS011;328;50.086;8.576;2023-03-13T00:06:33;8.73;;;2.60;;
691;SDS011;328;50.086;8.576;2023-03-13T00:09:01;13.90;;;2.77;;
691;SDS011;328;50.086;8.576;2023-03-13T00:11:30;5.00;;;2.00;;
691;SDS011;328;50.086;8.576;2023-03-13T00:13:58;9.40;;;2.70;;
691;SDS011;328;50.086;8.576;2023-03-13T00:16:27;6.50;;;2.03;;
691;SDS011;328;50.086;8.576;2023-03-13T00:18:56;9.07;;;2.70;;
691;SDS011;328;50.086;8.576;2023-03-13T00:21:25;7.37;;;2.63;;
691;SDS011;328;50.086;8.576;2023-03-13T00:23:55;6.53;;;2.27;;
691;SDS011;328;50.086;8.576;2023-03-13T00:26:24;8.60;;;2.67;;
691;SDS011;328;50.086;8.576;2023-03-13T00:28:52;6.57;;;3.47;;
691;SDS011;328;50.086;8.576;2023-03-13T00:31:20;9.83;;;2.87;;
691;SDS011;328;50.086;8.576;2023-03-13T00:33:50;9.97;;;2.63;;
691;SDS011;328;50.086;8.576;2023-03-13T00:36:19;7.93;;;2.77;;
691;SDS011;328;50.086;8.576;2023-03-13T00:38:47;6.90;;;2.10;;
691;SDS011;328;50.086;8.576;2023-03-13T00:41:17;9.80;;;2.87;;
691;SDS011;328;50.086;8.576;2023-03-13T00:43:45;7.50;;;2.20;;
691;SDS011;328;50.086;8.576;2023-03-13T00:46:15;9.10;;;2.60;;
691;SDS011;328;50.086;8.576;2023-03-13T00:48:44;6.63;;;2.20;;
691;SDS011;328;50.086;8.576;2023-03-13T00:51:12;9.40;;;2.73;;
691;SDS011;328;50.086;8.576;2023-03-13T00:53:39;13.70;;;4.50;;
691;SDS011;328;50.086;8.576;2023-03-13T00:56:07;8.30;;;2.20;;
691;SDS011;328;50.086;8.576;2023-03-13T00:58:38;8.73;;;1.70;;
691;SDS011;328;50.086;8.576;2023-03-13T01:01:07;8.40;;;2.57;;
691;SDS011;328;50.086;8.576;2023-03-13T01:03:35;8.80;;;3.03;;
691;SDS011;328;50.086;8.576;2023-03-13T01:06:04;10.03;;;3.03;;
691;SDS011;328;50.086;8.576;2023-03-13T01:08:33;6.60;;;2.17;;
691;SDS011;328;50.086;8.576;2023-03-13T01:11:03;7.77;;;2.43;;
691;SDS011;328;50.086;8.576;2023-03-13T01:13:32;9.57;;;3.73;;
691;SDS011;328;50.086;8.576;2023-03-13T01:16:04;10.47;;;2.63;;
691;SDS011;328;50.086;8.576;2023-03-13T01:18:34;5.83;;;2.40;;
691;SDS011;328;50.086;8.576;2023-03-13T01:21:02;4.00;;;2.00;;
691;SDS011;328;50.086;8.576;2023-03-13T01:23:30;6.57;;;2.37;;
691;SDS011;328;50.086;8.576;2023-03-13T01:25:58;7.73;;;2.40;;
691;SDS011;328;50.086;8.576;2023-03-13T01:28:25;10.27;;;2.37;;
691;SDS011;328;50.086;8.576;2023-03-13T01:30:53;8.60;;;2.20;;
691;SDS011;328;50.086;8.576;2023-03-13T01:33:22;8.10;;;2.20;;
691;SDS011;328;50.086;8.576;2023-03-13T01:35:49;8.50;;;3.73;;
691;SDS011;328;50.086;8.576;2023-03-13T01:38:17;6.30;;;1.77;;
691;SDS011;328;50.086;8.576;2023-03-13T01:40:45;7.53;;;2.37;;
691;SDS011;328;50.086;8.576;2023-03-13T01:43:18;5.67;;;2.00;;
691;SDS011;328;50.086;8.576;2023-03-13T01:45:53;8.00;;;2.13;;
691;SDS011;328;50.086;8.576;2023-03-13T01:48:26;7.10;;;2.60;;
691;SDS011;328;50.086;8.576;2023-03-13T01:50:57;8.10;;;2.10;;
691;SDS011;328;50.086;8.576;2023-03-13T01:53:26;8.43;;;1.93;;
691;SDS011;328;50.086;8.576;2023-03-13T01:55:59;8.20;;;1.77;;
691;SDS011;328;50.086;8.576;2023-03-13T01:58:29;6.23;;;2.57;;
691;SDS011;328;50.086;8.576;2023-03-13T02:00:57;9.80;;;2.73;;
691;SDS011;328;50.086;8.576;2023-03-13T02:03:26;6.80;;;1.93;;
691;SDS011;328;50.086;8.576;2023-03-13T02:05:54;6.27;;;2.13;;
691;SDS011;328;50.086;8.576;2023-03-13T02:08:24;8.70;;;1.80;;
691;SDS011;328;50.086;8.576;2023-03-13T02:10:57;9.43;;;2.10;;
691;SDS011;328;50.086;8.576;2023-03-13T02:13:30;4.40;;;1.87;;
691;SDS011;328;50.086;8.576;2023-03-13T02:15:58;5.70;;;2.10;;
691;SDS011;328;50.086;8.576;2023-03-13T02:18:27;7.03;;;2.57;;
691;SDS011;328;50.086;8.576;2023-03-13T02:20:55;6.27;;;1.53;;
691;SDS011;328;50.086;8.576;2023-03-13T02:23:28;4.40;;;1.70;;
691;SDS011;328;50.086;8.576;2023-03-13T02:26:00;6.97;;;1.57;;
691;SDS011;328;50.086;8.576;2023-03-13T02:28:28;6.57;;;3.00;;
691;SDS011;328;50.086;8.576;2023-03-13T02:30:58;6.70;;;2.23;;
691;SDS011;328;50.086;8.576;2023-03-13T02:33:27;9.50;;;1.80;;
691;SDS011;328;50.086;8.576;2023-03-13T02:35:56;7.73;;;2.30;;
691;SDS011;328;50.086;8.576;2023-03-13T02:38:26;7.13;;;2.17;;
691;SDS011;328;50.086;8.576;2023-03-13T02:40:56;4.67;;;1.70;;
691;SDS011;328;50.086;8.576;2023-03-13T02:43:27;6.63;;;2.50;;
691;SDS011;328;50.086;8.576;2023-03-13T02:46:00;10.57;;;1.90;;
691;SDS011;328;50.086;8.576;2023-03-13T02:48:32;4.80;;;2.07;;
691;SDS011;328;50.086;8.576;2023-03-13T02:51:03;9.17;;;2.70;;
691;SDS011;328;50.086;8.576;2023-03-13T02:53:32;6.73;;;2.10;;
691;SDS011;328;50.086;8.576;2023-03-13T02:56:01;4.17;;;1.90;;
691;SDS011;328;50.086;8.576;2023-03-13T02:58:36;12.50;;;1.97;;
691;SDS011;328;50.086;8.576;2023-03-13T03:01:15;9.53;;;3.03;;
691;SDS011;328;50.086;8.576;2023-03-13T03:03:42;8.40;;;2.00;;
691;SDS011;328;50.086;8.576;2023-03-13T03:06:10;6.37;;;1.80;;
691;SDS011;328;50.086;8.576;2023-03-13T03:08:37;10.23;;;2.03;;
691;SDS011;328;50.086;8.576;2023-03-13T03:11:06;14.93;;;2.90;;
691;SDS011;328;50.086;8.576;2023-03-13T03:13:35;7.70;;;2.33;;
691;SDS011;328;50.086;8.576;2023-03-13T03:16:06;6.00;;;2.00;;
691;SDS011;328;50.086;8.576;2023-03-13T03:18:34;6.37;;;2.20;;
691;SDS011;328;50.086;8.576;2023-03-13T03:21:02;7.83;;;1.90;;
691;SDS011;328;50.086;8.576;2023-03-13T03:23:31;6.90;;;2.70;;
691;SDS011;328;50.086;8.576;2023-03-13T03:25:59;8.30;;;1.73;;
691;SDS011;328;50.086;8.576;2023-03-13T03:28:27;6.17;;;2.10;;
691;SDS011;328;50.086;8.576;2023-03-13T03:30:56;6.00;;;1.87;;
691;SDS011;328;50.086;8.576;2023-03-13T03:33:23;5.47;;;2.70;;
691;SDS011;328;50.086;8.576;2023-03-13T03:35:51;4.70;;;2.00;;
691;SDS011;328;50.086;8.576;2023-03-13T03:38:18;11.27;;;2.13;;
691;SDS011;328;50.086;8.576;2023-03-13T03:40:46;6.57;;;2.03;;
691;SDS011;328;50.086;8.576;2023-03-13T03:43:13;9.23;;;2.70;;
691;SDS011;328;50.086;8.576;2023-03-13T03:45:41;6.03;;;2.27;;
691;SDS011;328;50.086;8.576;2023-03-13T03:48:10;6.23;;;1.80;;
691;SDS011;328;50.086;8.576;2023-03-13T03:50:37;8.03;;;1.90;;
691;SDS011;328;50.086;8.576;2023-03-13T03:53:05;4.30;;;2.10;;
691;SDS011;328;50.086;8.576;2023-03-13T03:55:33;12.43;;;2.83;;
691;SDS011;328;50.086;8.576;2023-03-13T03:58:00;4.70;;;1.67;;
691;SDS011;328;50.086;8.576;2023-03-13T04:00:28;4.97;;;2.67;;
691;SDS011;328;50.086;8.576;2023-03-13T04:02:55;6.83;;;2.30;;
691;SDS011;328;50.086;8.576;2023-03-13T04:05:24;13.20;;;2.60;;
691;SDS011;328;50.086;8.576;2023-03-13T04:07:51;8.60;;;2.57;;
691;SDS011;328;50.086;8.576;2023-03-13T04:10:19;7.70;;;2.17;;
691;SDS011;328;50.086;8.576;2023-03-13T04:12:46;10.00;;;2.97;;
691;SDS011;328;50.086;8.576;2023-03-13T04:15:14;7.70;;;2.70;;
691;SDS011;328;50.086;8.576;2023-03-13T04:17:42;8.20;;;2.53;;
691;SDS011;328;50.086;8.576;2023-03-13T04:20:09;8.03;;;2.37;;
691;SDS011;328;50.086;8.576;2023-03-13T04:22:40;6.13;;;2.60;;
691;SDS011;328;50.086;8.576;2023-03-13T04:25:08;7.20;;;2.80;;
691;SDS011;328;50.086;8.576;2023-03-13T04:27:36;7.00;;;2.83;;
691;SDS011;328;50.086;8.576;2023-03-13T04:30:04;8.37;;;2.23;;
691;SDS011;328;50.086;8.576;2023-03-13T04:32:33;2.90;;;1.70;;
691;SDS011;328;50.086;8.576;2023-03-13T04:35:00;7.67;;;2.30;;
691;SDS011;328;50.086;8.576;2023-03-13T04:37:28;6.00;;;2.30;;
691;SDS011;328;50.086;8.576;2023-03-13T04:39:57;7.60;;;2.83;;
691;SDS011;328;50.086;8.576;2023-03-13T04:42:24;8.10;;;2.20;;
691;SDS011;328;50.086;8.576;2023-03-13T04:44:52;10.97;;;2.60;;
691;SDS011;328;50.086;8.576;2023-03-13T04:47:19;7.77;;;2.43;;
691;SDS011;328;50.086;8.576;2023-03-13T04:49:47;12.30;;;2.33;;
691;SDS011;328;50.086;8.576;2023-03-13T04:52:16;8.53;;;1.93;;
691;SDS011;328;50.086;8.576;2023-03-13T04:54:43;10.67;;;4.50;;
691;SDS011;328;50.086;8.576;2023-03-13T04:57:12;5.37;;;2.37;;
691;SDS011;328;50.086;8.576;2023-03-13T04:59:39;2.93;;;1.60;;
691;SDS011;328;50.086;8.576;2023-03-13T05:02:07;6.30;;;1.90;;
691;SDS011;328;50.086;8.576;2023-03-13T05:04:36;12.03;;;2.80;;
691;SDS011;328;50.086;8.576;2023-03-13T05:07:03;4.97;;;1.73;;
691;SDS011;328;50.086;8.576;2023-03-13T05:09:31;3.70;;;1.70;;
691;SDS011;328;50.086;8.576;2023-03-13T05:11:58;4.00;;;1.77;;
691;SDS011;328;50.086;8.576;2023-03-13T05:14:27;2.27;;;1.30;;
691;SDS011;328;50.086;8.576;2023-03-13T05:16:55;4.30;;;1.77;;
691;SDS011;328;50.086;8.576;2023-03-13T05:19:22;2.20;;;1.20;;
691;SDS011;328;50.086;8.576;2023-03-13T05:21:50;3.47;;;1.47;;
691;SDS011;328;50.086;8.576;2023-03-13T05:24:17;3.63;;;1.70;;
691;SDS011;328;50.086;8.576;2023-03-13T05:26:45;2.53;;;1.30;;
691;SDS011;328;50.086;8.576;2023-03-13T05:29:12;3.23;;;1.30;;
691;SDS011;328;50.086;8.576;2023-03-13T05:31:41;4.03;;;1.37;;
691;SDS011;328;50.086;8.576;2023-03-13T05:34:11;6.87;;;1.40;;
691;SDS011;328;50.086;8.576;2023-03-13T05:36:39;3.83;;;1.23;;
691;SDS011;328;50.086;8.576;2023-03-13T05:39:06;3.33;;;1.50;;
691;SDS011;328;50.086;8.576;2023-03-13T05:41:34;5.53;;;2.43;;
691;SDS011;328;50.086;8.576;2023-03-13T05:44:01;3.03;;;2.37;;
691;SDS011;328;50.086;8.576;2023-03-13T05:46:29;7.00;;;2.20;;
691;SDS011;328;50.086;8.576;2023-03-13T05:48:58;4.73;;;2.17;;
691;SDS011;328;50.086;8.576;2023-03-13T05:51:26;2.43;;;1.73;;
691;SDS011;328;50.086;8.576;2023-03-13T05:53:57;3.43;;;1.90;;
691;SDS011;328;50.086;8.576;2023-03-13T05:56:25;4.20;;;1.93;;
691;SDS011;328;50.086;8.576;2023-03-13T05:58:53;5.07;;;1.73;;
691;SDS011;328;50.086;8.576;2023-03-13T06:01:20;4.03;;;1.97;;
691;SDS011;328;50.086;8.576;2023-03-13T06:03:48;3.73;;;1.67;;
691;SDS011;328;50.086;8.576;2023-03-13T06:06:17;5.40;;;1.80;;
691;SDS011;328;50.086;8.576;2023-03-13T06:08:44;3.80;;;1.90;;
691;SDS011;328;50.086;8.576;2023-03-13T06:11:12;4.00;;;1.63;;
691;SDS011;328;50.086;8.576;2023-03-13T06:13:39;3.20;;;1.60;;
691;SDS011;328;50.086;8.576;2023-03-13T06:16:07;4.00;;;2.13;;
691;SDS011;328;50.086;8.576;2023-03-13T06:18:36;2.20;;;1.93;;
691;SDS011;328;50.086;8.576;2023-03-13T06:21:03;2.73;;;2.13;;
691;SDS011;328;50.086;8.576;2023-03-13T06:23:32;3.60;;;1.83;;
691;SDS011;328;50.086;8.576;2023-03-13T06:26:00;5.13;;;2.00;;
691;SDS011;328;50.086;8.576;2023-03-13T06:28:27;3.77;;;2.20;;
691;SDS011;328;50.086;8.576;2023-03-13T06:30:59;3.20;;;2.10;;
691;SDS011;328;50.086;8.576;2023-03-13T06:33:27;2.70;;;2.03;;
691;SDS011;328;50.086;8.576;2023-03-13T06:35:56;3.77;;;2.43;;
691;SDS011;328;50.086;8.576;2023-03-13T06:38:23;3.40;;;1.90;;
691;SDS011;328;50.086;8.576;2023-03-13T06:40:52;4.00;;;2.10;;
691;SDS011;328;50.086;8.576;2023-03-13T06:43:20;4.33;;;2.00;;
691;SDS011;328;50.086;8.576;2023-03-13T06:45:48;4.60;;;2.03;;
691;SDS011;328;50.086;8.576;2023-03-13T06:48:15;1.87;;;1.50;;
691;SDS011;328;50.086;8.576;2023-03-13T06:50:43;2.13;;;1.77;;
691;SDS011;328;50.086;8.576;2023-03-13T06:53:12;3.67;;;1.50;;
691;SDS011;328;50.086;8.576;2023-03-13T06:55:41;2.13;;;1.63;;
691;SDS011;328;50.086;8.576;2023-03-13T06:58:10;3.20;;;1.70;;
691;SDS011;328;50.086;8.576;2023-03-13T07:00:56;3.07;;;1.57;;
691;SDS011;328;50.086;8.576;2023-03-13T07:03:24;2.43;;;1.80;;
691;SDS011;328;50.086;8.576;2023-03-13T07:05:54;13.97;;;3.10;;
691;SDS011;328;50.086;8.576;2023-03-13T07:08:22;2.20;;;1.57;;
691;SDS011;328;50.086;8.576;2023-03-13T07:10:50;2.60;;;1.70;;
691;SDS011;328;50.086;8.576;2023-03-13T07:13:19;2.20;;;1.50;;
691;SDS011;328;50.086;8.576;2023-03-13T07:15:47;5.07;;;1.60;;
691;SDS011;328;50.086;8.576;2023-03-13T07:18:16;3.73;;;1.77;;
691;SDS011;328;50.086;8.576;2023-03-13T07:20:44;2.13;;;1.50;;
691;SDS011;328;50.086;8.576;2023-03-13T07:23:11;1.40;;;1.30;;
691;SDS011;328;50.086;8.576;2023-03-13T07:25:39;6.00;;;1.70;;
691;SDS011;328;50.086;8.576;2023-03-13T07:28:06;1.40;;;1.10;;
691;SDS011;328;50.086;8.576;2023-03-13T07:30:35;3.80;;;1.30;;
691;SDS011;328;50.086;8.576;2023-03-13T07:33:04;1.73;;;1.27;;
691;SDS011;328;50.086;8.576;2023-03-13T07:35:32;2.60;;;1.43;;
691;SDS011;328;50.086;8.576;2023-03-13T07:37:59;1.67;;;1.37;;
691;SDS011;328;50.086;8.576;2023-03-13T07:40:27;1.67;;;1.40;;
691;SDS011;328;50.086;8.576;2023-03-13T07:42:54;1.57;;;1.20;;
691;SDS011;328;50.086;8.576;2023-03-13T07:45:22;1.33;;;1.03;;
691;SDS011;328;50.086;8.576;2023-03-13T07:47:51;2.73;;;1.60;;
691;SDS011;328;50.086;8.576;2023-03-13T07:50:18;2.13;;;1.10;;
691;SDS011;328;50.086;8.576;2023-03-13T07:52:46;2.50;;;1.00;;
691;SDS011;328;50.086;8.576;2023-03-13T07:55:13;1.17;;;1.00;;
691;SDS011;328;50.086;8.576;2023-03-13T07:57:41;1.50;;;1.10;;
691;SDS011;328;50.086;8.576;2023-03-13T08:00:09;2.63;;;1.23;;
691;SDS011;328;50.086;8.576;2023-03-13T08:02:41;2.43;;;1.43;;
691;SDS011;328;50.086;8.576;2023-03-13T08:05:10;1.70;;;1.00;;
691;SDS011;328;50.086;8.576;2023-03-13T08:07:38;1.77;;;1.40;;
691;SDS011;328;50.086;8.576;2023-03-13T08:10:05;2.40;;;1.40;;
691;SDS011;328;50.086;8.576;2023-03-13T08:12:33;1.50;;;1.40;;
691;SDS011;328;50.086;8.576;2023-03-13T08:15:01;2.97;;;1.77;;
691;SDS011;328;50.086;8.576;2023-03-13T08:17:29;1.97;;;1.80;;
691;SDS011;328;50.086;8.576;2023-03-13T08:19:56;2.30;;;2.10;;
691;SDS011;328;50.086;8.576;2023-03-13T08:22:25;2.00;;;1.60;;
691;SDS011;328;50.086;8.576;2023-03-13T08:24:53;2.87;;;1.80;;
691;SDS011;328;50.086;8.576;2023-03-13T08:27:20;2.10;;;1.60;;
691;SDS011;328;50.086;8.576;2023-03-13T08:29:47;3.43;;;2.00;;
691;SDS011;328;50.086;8.576;2023-03-13T08:32:15;2.00;;;1.50;;
691;SDS011;328;50.086;8.576;2023-03-13T08:34:43;2.47;;;1.80;;
691;SDS011;328;50.086;8.576;2023-03-13T08:37:13;2.47;;;1.80;;
691;SDS011;328;50.086;8.576;2023-03-13T08:39:42;1.63;;;1.50;;
691;SDS011;328;50.086;8.576;2023-03-13T08:42:11;2.33;;;2.03;;
691;SDS011;328;50.086;8.576;2023-03-13T08:44:39;2.07;;;1.80;;
691;SDS011;328;50.086;8.576;2023-03-13T08:47:07;3.40;;;2.17;;
691;SDS011;328;50.086;8.576;2023-03-13T08:49:34;2.47;;;2.27;;
691;SDS011;328;50.086;8.576;2023-03-13T08:52:02;2.37;;;2.07;;
691;SDS011;328;50.086;8.576;2023-03-13T08:54:30;2.10;;;1.90;;
691;SDS011;328;50.086;8.576;2023-03-13T08:57:00;2.57;;;2.13;;
691;SDS011;328;50.086;8.576;2023-03-13T08:59:27;3.53;;;2.10;;
691;SDS011;328;50.086;8.576;2023-03-13T09:01:55;2.63;;;2.10;;
691;SDS011;328;50.086;8.576;2023-03-13T09:04:22;2.50;;;2.30;;
691;SDS011;328;50.086;8.576;2023-03-13T09:06:50;3.83;;;2.30;;
691;SDS011;328;50.086;8.576;2023-03-13T09:09:18;3.27;;;2.37;;
691;SDS011;328;50.086;8.576;2023-03-13T09:11:45;2.60;;;2.37;;
691;SDS011;328;50.086;8.576;2023-03-13T09:14:14;2.53;;;1.80;;
691;SDS011;328;50.086;8.576;2023-03-13T09:16:42;2.47;;;1.93;;
691;SDS011;328;50.086;8.576;2023-03-13T09:19:11;1.70;;;1.57;;
691;SDS011;328;50.086;8.576;2023-03-13T09:21:39;3.20;;;1.93;;
691;SDS011;328;50.086;8.576;2023-03-13T09:24:06;2.10;;;1.70;;
691;SDS011;328;50.086;8.576;2023-03-13T09:26:34;2.33;;;1.83;;
691;SDS011;328;50.086;8.576;2023-03-13T09:29:02;2.97;;;1.60;;
691;SDS011;328;50.086;8.576;2023-03-13T09:31:31;1.83;;;1.73;;
691;SDS011;328;50.086;8.576;2023-03-13T09:33:59;2.00;;;1.57;;
691;SDS011;328;50.086;8.576;2023-03-13T09:36:27;2.27;;;2.07;;
691;SDS011;328;50.086;8.576;2023-03-13T09:38:56;1.70;;;1.40;;
691;SDS011;328;50.086;8.576;2023-03-13T09:41:26;2.10;;;1.70;;
691;SDS011;328;50.086;8.576;2023-03-13T09:43:59;2.20;;;1.53;;
691;SDS011;328;50.086;8.576;2023-03-13T09:46:32;3.43;;;2.40;;
691;SDS011;328;50.086;8.576;2023-03-13T09:49:04;2.20;;;2.00;;
691;SDS011;328;50.086;8.576;2023-03-13T09:51:38;1.60;;;1.37;;
691;SDS011;328;50.086;8.576;2023-03-13T09:54:08;2.17;;;1.97;;
691;SDS011;328;50.086;8.576;2023-03-13T09:56:43;2.17;;;1.80;;
691;SDS011;328;50.086;8.576;2023-03-13T09:59:14;2.33;;;2.10;;
691;SDS011;328;50.086;8.576;2023-03-13T10:01:46;1.93;;;1.40;;
691;SDS011;328;50.086;8.576;2023-03-13T10:04:23;2.20;;;1.83;;
691;SDS011;328;50.086;8.576;2023-03-13T10:06:54;2.27;;;1.60;;
691;SDS011;328;50.086;8.576;2023-03-13T10:09:24;11.20;;;2.23;;
691;SDS011;328;50.086;8.576;2023-03-13T10:11:55;3.03;;;2.20;;
691;SDS011;328;50.086;8.576;2023-03-13T10:14:28;3.70;;;2.13;;
691;SDS011;328;50.086;8.576;2023-03-13T10:17:00;2.17;;;1.80;;
691;SDS011;328;50.086;8.576;2023-03-13T10:19:32;2.80;;;1.60;;
691;SDS011;328;50.086;8.576;2023-03-13T10:22:03;5.00;;;2.67;;
691;SDS011;328;50.086;8.576;2023-03-13T10:24:39;4.10;;;1.87;;
691;SDS011;328;50.086;8.576;2023-03-13T10:27:09;2.73;;;2.00;;
691;SDS011;328;50.086;8.576;2023-03-13T10:29:37;2.63;;;2.30;;
691;SDS011;328;50.086;8.576;2023-03-13T10:32:07;2.47;;;2.00;;
691;SDS011;328;50.086;8.576;2023-03-13T10:37:22;3.17;;;2.00;;
691;SDS011;328;50.086;8.576;2023-03-13T10:39:51;2.30;;;2.10;;
691;SDS011;328;50.086;8.576;2023-03-13T10:42:24;3.67;;;2.60;;
691;SDS011;328;50.086;8.576;2023-03-13T10:44:55;2.33;;;2.10;;
691;SDS011;328;50.086;8.576;2023-03-13T10:47:25;3.20;;;2.10;;
691;SDS011;328;50.086;8.576;2023-03-13T10:49:54;2.67;;;1.67;;
691;SDS011;328;50.086;8.576;2023-03-13T10:52:30;2.50;;;2.30;;
691;SDS011;328;50.086;8.576;2023-03-13T10:55:00;3.00;;;1.93;;
691;SDS011;328;50.086;8.576;2023-03-13T10:57:29;2.63;;;1.80;;
691;SDS011;328;50.086;8.576;2023-03-13T10:59:57;4.10;;;1.97;;
691;SDS011;328;50.086;8.576;2023-03-13T11:02:30;3.53;;;2.00;;
691;SDS011;328;50.086;8.576;2023-03-13T11:05:01;1.70;;;1.40;;
691;SDS011;328;50.086;8.576;2023-03-13T11:07:29;1.90;;;1.80;;
691;SDS011;328;50.086;8.576;2023-03-13T11:10:00;2.17;;;1.97;;
691;SDS011;328;50.086;8.576;2023-03-13T11:12:32;2.90;;;2.00;;
691;SDS011;328;50.086;8.576;2023-03-13T11:15:01;3.30;;;2.10;;
691;SDS011;328;50.086;8.576;2023-03-13T11:17:33;4.90;;;1.73;;
691;SDS011;328;50.086;8.576;2023-03-13T11:20:07;2.03;;;1.80;;
691;SDS011;328;50.086;8.576;2023-03-13T11:22:44;3.30;;;2.13;;
691;SDS011;328;50.086;8.576;2023-03-13T11:25:17;2.63;;;1.80;;
691;SDS011;328;50.086;8.576;2023-03-13T11:27:50;3.73;;;2.30;;
691;SDS011;328;50.086;8.576;2023-03-13T11:30:31;3.03;;;1.80;;
691;SDS011;328;50.086;8.576;2023-03-13T11:33:11;1.97;;;1.60;;
691;SDS011;328;50.086;8.576;2023-03-13T11:35:46;2.23;;;1.87;;
691;SDS011;328;50.086;8.576;2023-03-13T11:38:17;4.20;;;1.70;;
691;SDS011;328;50.086;8.576;2023-03-13T11:40:48;3.50;;;1.63;;
691;SDS011;328;50.086;8.576;2023-03-13T11:46:13;1.93;;;1.53;;
691;SDS011;328;50.086;8.576;2023-03-13T11:48:52;1.77;;;1.60;;
691;SDS011;328;50.086;8.576;2023-03-13T11:51:28;3.70;;;1.70;;
691;SDS011;328;50.086;8.576;2023-03-13T11:54:05;3.90;;;1.70;;
691;SDS011;328;50.086;8.576;2023-03-13T11:56:42;2.37;;;1.60;;
691;SDS011;328;50.086;8.576;2023-03-13T11:59:20;1.70;;;1.30;;
691;SDS011;328;50.086;8.576;2023-03-13T12:01:54;2.10;;;1.43;;
691;SDS011;328;50.086;8.576;2023-03-13T12:04:28;2.00;;;1.10;;
691;SDS011;328;50.086;8.576;2023-03-13T12:07:01;1.87;;;1.20;;
691;SDS011;328;50.086;8.576;2023-03-13T12:09:30;1.73;;;1.63;;
691;SDS011;328;50.086;8.576;2023-03-13T12:12:00;3.20;;;1.37;;
691;SDS011;328;50.086;8.576;2023-03-13T12:14:30;2.20;;;1.40;;
691;SDS011;328;50.086;8.576;2023-03-13T12:17:00;3.20;;;1.57;;
691;SDS011;328;50.086;8.576;2023-03-13T12:19:31;4.40;;;1.90;;
691;SDS011;328;50.086;8.576;2023-03-13T12:22:02;2.50;;;1.40;;
691;SDS011;328;50.086;8.576;2023-03-13T12:24:35;3.23;;;1.20;;
691;SDS011;328;50.086;8.576;2023-03-13T12:27:07;4.73;;;1.40;;
691;SDS011;328;50.086;8.576;2023-03-13T12:29:40;3.17;;;1.50;;
691;SDS011;328;50.086;8.576;2023-03-13T12:32:12;3.00;;;1.77;;
691;SDS011;328;50.086;8.576;2023-03-13T12:34:45;2.10;;;1.63;;
691;SDS011;328;50.086;8.576;2023-03-13T12:37:20;1.90;;;1.47;;
691;SDS011;328;50.086;8.576;2023-03-13T12:39:53;2.13;;;1.50;;
691;SDS011;328;50.086;8.576;2023-03-13T12:42:29;4.07;;;1.90;;
691;SDS011;328;50.086;8.576;2023-03-13T12:45:04;3.33;;;1.93;;
691;SDS011;328;50.086;8.576;2023-03-13T12:47:33;2.80;;;1.63;;
691;SDS011;328;50.086;8.576;2023-03-13T12:50:10;8.33;;;1.73;;
691;SDS011;328;50.086;8.576;2023-03-13T12:52:51;3.30;;;1.73;;
691;SDS011;328;50.086;8.576;2023-03-13T12:55:52;1.60;;;1.30;;
691;SDS011;328;50.086;8.576;2023-03-13T12:58:28;2.63;;;1.90;;
691;SDS011;328;50.086;8.576;2023-03-13T13:00:57;4.73;;;1.70;;
691;SDS011;328;50.086;8.576;2023-03-13T13:03:29;3.17;;;2.13;;
691;SDS011;328;50.086;8.576;2023-03-13T13:06:04;2.60;;;1.80;;
691;SDS011;328;50.086;8.576;2023-03-13T13:08:35;2.47;;;1.80;;
691;SDS011;328;50.086;8.576;2023-03-13T13:17:30;4.07;;;2.10;;
691;SDS011;328;50.086;8.576;2023-03-13T13:23:23;3.90;;;2.50;;
691;SDS011;328;50.086;8.576;2023-03-13T13:25:53;2.33;;;1.87;;
691;SDS011;328;50.086;8.576;2023-03-13T13:28:23;2.60;;;1.93;;
691;SDS011;328;50.086;8.576;2023-03-13T13:31:01;3.00;;;1.87;;
691;SDS011;328;50.086;8.576;2023-03-13T13:33:57;4.13;;;1.73;;
691;SDS011;328;50.086;8.576;2023-03-13T13:36:28;5.10;;;1.90;;
691;SDS011;328;50.086;8.576;2023-03-13T13:38:58;2.77;;;1.93;;
691;SDS011;328;50.086;8.576;2023-03-13T13:41:32;2.50;;;1.50;;
691;SDS011;328;50.086;8.576;2023-03-13T13:44:13;1.97;;;1.70;;
691;SDS011;328;50.086;8.576;2023-03-13T13:46:47;2.50;;;1.77;;
691;SDS011;328;50.086;8.576;2023-03-13T13:49:16;2.77;;;1.50;;
691;SDS011;328;50.086;8.576;2023-03-13T13:54:55;2.60;;;1.50;;
691;SDS011;328;50.086;8.576;2023-03-13T13:57:24;2.57;;;1.40;;
691;SDS011;328;50.086;8.576;2023-03-13T13:59:53;3.03;;;1.80;;
691;SDS011;328;50.086;8.576;2023-03-13T14:02:24;2.73;;;1.93;;
691;SDS011;328;50.086;8.576;2023-03-13T14:04:54;2.33;;;1.80;;
691;SDS011;328;50.086;8.576;2023-03-13T14:07:30;4.80;;;1.90;;
691;SDS011;328;50.086;8.576;2023-03-13T14:10:07;2.40;;;1.47;;
691;SDS011;328;50.086;8.576;2023-03-13T14:12:44;3.17;;;1.60;;
691;SDS011;328;50.086;8.576;2023-03-13T14:15:14;2.23;;;1.70;;
691;SDS011;328;50.086;8.576;2023-03-13T14:17:43;3.80;;;1.90;;
691;SDS011;328;50.086;8.576;2023-03-13T14:22:59;2.10;;;1.60;;
691;SDS011;328;50.086;8.576;2023-03-13T14:25:38;2.33;;;1.73;;
691;SDS011;328;50.086;8.576;2023-03-13T14:28:18;2.03;;;1.67;;
691;SDS011;328;50.086;8.576;2023-03-13T14:30:47;2.63;;;1.30;;
691;SDS011;328;50.086;8.576;2023-03-13T14:33:15;4.17;;;1.60;;
691;SDS011;328;50.086;8.576;2023-03-13T14:35:43;3.00;;;1.40;;
691;SDS011;328;50.086;8.576;2023-03-13T14:38:15;2.73;;;1.57;;
691;SDS011;328;50.086;8.576;2023-03-13T14:40:46;2.03;;;1.50;;
691;SDS011;328;50.086;8.576;2023-03-13T14:43:20;2.60;;;1.53;;
691;SDS011;328;50.086;8.576;2023-03-13T14:45:52;1.80;;;1.47;;
691;SDS011;328;50.086;8.576;2023-03-13T14:48:20;1.83;;;1.00;;
691;SDS011;328;50.086;8.576;2023-03-13T14:50:49;2.63;;;1.20;;
691;SDS011;328;50.086;8.576;2023-03-13T14:53:40;2.83;;;1.40;;
691;SDS011;328;50.086;8.576;2023-03-13T14:56:28;1.63;;;1.30;;
691;SDS011;328;50.086;8.576;2023-03-13T14:59:07;1.30;;;0.90;;
691;SDS011;328;50.086;8.576;2023-03-13T15:01:41;1.77;;;1.20;;
691;SDS011;328;50.086;8.576;2023-03-13T15:04:09;1.10;;;0.70;;
691;SDS011;328;50.086;8.576;2023-03-13T15:06:36;1.63;;;0.83;;
691;SDS011;328;50.086;8.576;2023-03-13T15:09:14;1.50;;;1.00;;
691;SDS011;328;50.086;8.576;2023-03-13T15:11:56;0.90;;;0.70;;
691;SDS011;328;50.086;8.576;2023-03-13T15:14:31;3.30;;;2.00;;
691;SDS011;328;50.086;8.576;2023-03-13T15:17:01;6.77;;;2.13;;
691;SDS011;328;50.086;8.576;2023-03-13T15:19:29;2.10;;;1.23;;
691;SDS011;328;50.086;8.576;2023-03-13T15:21:57;5.17;;;1.10;;
691;SDS011;328;50.086;8.576;2023-03-13T15:24:24;3.03;;;1.20;;
691;SDS011;328;50.086;8.576;2023-03-13T15:26:52;2.20;;;1.13;;
691;SDS011;328;50.086;8.576;2023-03-13T15:29:21;1.87;;;0.90;;
691;SDS011;328;50.086;8.576;2023-03-13T15:31:48;9.90;;;1.90;;
691;SDS011;328;50.086;8.576;2023-03-13T15:34:16;3.47;;;1.40;;
691;SDS011;328;50.086;8.576;2023-03-13T15:36:45;2.27;;;1.03;;
691;SDS011;328;50.086;8.576;2023-03-13T15:39:12;2.90;;;1.30;;
691;SDS011;328;50.086;8.576;2023-03-13T15:41:41;1.93;;;1.70;;
691;SDS011;328;50.086;8.576;2023-03-13T15:44:09;2.43;;;1.50;;
691;SDS011;328;50.086;8.576;2023-03-13T15:46:38;3.40;;;1.30;;
691;SDS011;328;50.086;8.576;2023-03-13T15:49:05;0.90;;;0.60;;
691;SDS011;328;50.086;8.576;2023-03-13T15:51:36;2.20;;;0.80;;
691;SDS011;328;50.086;8.576;2023-03-13T15:54:04;3.50;;;1.10;;
691;SDS011;328;50.086;8.576;2023-03-13T15:56:33;1.23;;;0.83;;
691;SDS011;328;50.086;8.576;2023-03-13T15:59:04;1.60;;;0.83;;
691;SDS011;328;50.086;8.576;2023-03-13T16:01:36;2.30;;;1.10;;
691;SDS011;328;50.086;8.576;2023-03-13T16:04:05;1.57;;;0.90;;
691;SDS011;328;50.086;8.576;2023-03-13T16:06:33;1.37;;;1.10;;
691;SDS011;328;50.086;8.576;2023-03-13T16:09:01;2.77;;;1.20;;
691;SDS011;328;50.086;8.576;2023-03-13T16:11:30;2.30;;;0.97;;
691;SDS011;328;50.086;8.576;2023-03-13T16:13:58;2.13;;;1.07;;
691;SDS011;328;50.086;8.576;2023-03-13T16:16:26;1.70;;;0.90;;
691;SDS011;328;50.086;8.576;2023-03-13T16:18:57;3.17;;;0.93;;
691;SDS011;328;50.086;8.576;2023-03-13T16:21:26;2.30;;;1.30;;
691;SDS011;328;50.086;8.576;2023-03-13T16:23:54;3.33;;;1.60;;